Time;durP1;ratioP1;P1;durP2;ratioP2;P2;SDS_P1;SDS_P2;PMS_P1;PMS_P2;Temp;Humidity;BMP_temperature;BMP_pressure;BME280_temperature;BME280_humidity;BME280_pressure;Samples;Min_cycle;Max_cycle;Signal;HPM_P1;HPM_P2
2021/08/09 00:01:42;;;;;;;3.13;2.83;;;;;;;;;;5095355;28;20461;-60
2021/08/09 00:04:07;;;;;;;3.67;2.95;;;;;;;;;;5113489;28;20067;-60
2021/08/09 00:06:33;;;;;;;3.22;2.92;;;;;;;;;;5113573;28;20110;-60
2021/08/09 00:08:59;;;;;;;5.65;2.95;;;;;;;;;;5113405;28;20036;-59
2021/08/09 00:11:25;;;;;;;3.28;3.00;;;;;;;;;;5091543;28;20120;-61
2021/08/09 00:13:50;;;;;;;4.85;3.42;;;;;;;;;;5093634;28;20059;-59
2021/08/09 00:16:16;;;;;;;3.33;3.03;;;;;;;;;;5093306;28;20039;-60
2021/08/09 00:18:45;;;;;;;3.42;3.10;;;;;;;;;;5093428;28;20036;-60
2021/08/09 00:21:11;;;;;;;3.97;3.15;;;;;;;;;;5097248;28;20487;-60
2021/08/09 00:23:37;;;;;;;3.58;3.20;;;;;;;;;;5097428;28;20040;-60
2021/08/09 00:26:02;;;;;;;4.65;3.38;;;;;;;;;;5096897;28;20033;-60
2021/08/09 00:28:27;;;;;;;6.15;3.50;;;;;;;;;;5097252;28;20054;-59
2021/08/09 00:30:53;;;;;;;3.58;3.28;;;;;;;;;;5097020;28;20482;-60
2021/08/09 00:33:19;;;;;;;3.75;3.20;;;;;;;;;;5095603;28;20032;-60
2021/08/09 00:35:44;;;;;;;4.65;3.38;;;;;;;;;;5096823;28;20387;-59
2021/08/09 00:38:10;;;;;;;5.28;3.72;;;;;;;;;;5095516;28;20044;-59
2021/08/09 00:40:37;;;;;;;3.97;3.58;;;;;;;;;;5095477;28;20483;-59
2021/08/09 00:43:03;;;;;;;3.88;3.47;;;;;;;;;;5095380;28;20063;-60
2021/08/09 00:45:29;;;;;;;3.78;3.33;;;;;;;;;;5094972;28;20040;-60
2021/08/09 00:47:54;;;;;;;4.82;4.38;;;;;;;;;;5095281;28;20036;-60
2021/08/09 00:50:20;;;;;;;5.90;4.72;;;;;;;;;;5095350;28;20032;-59
2021/08/09 00:52:46;;;;;;;6.60;4.72;;;;;;;;;;5095220;28;20044;-60
2021/08/09 00:55:11;;;;;;;5.10;4.70;;;;;;;;;;5095198;28;20024;-59
2021/08/09 00:57:37;;;;;;;5.15;4.63;;;;;;;;;;5095328;28;20111;-60
2021/08/09 01:00:04;;;;;;;5.50;5.00;;;;;;;;;;5095057;28;20137;-60
2021/08/09 01:02:33;;;;;;;5.65;5.20;;;;;;;;;;5094853;28;20395;-59
2021/08/09 01:05:02;;;;;;;5.03;4.60;;;;;;;;;;5094814;28;20062;-60
2021/08/09 01:07:32;;;;;;;4.85;4.55;;;;;;;;;;5094984;28;20044;-60
2021/08/09 01:10:07;;;;;;;5.32;4.93;;;;;;;;;;5096214;28;20078;-60
2021/08/09 01:12:46;;;;;;;4.97;4.57;;;;;;;;;;5094484;28;20123;-60
2021/08/09 01:15:15;;;;;;;5.32;4.90;;;;;;;;;;5094804;28;20024;-60
2021/08/09 01:17:46;;;;;;;5.30;4.80;;;;;;;;;;5094822;28;20062;-60
2021/08/09 01:20:33;;;;;;;5.43;4.93;;;;;;;;;;5094684;28;20372;-60
2021/08/09 01:22:59;;;;;;;7.00;4.65;;;;;;;;;;5094635;28;20073;-60
2021/08/09 01:25:32;;;;;;;4.85;4.35;;;;;;;;;;5094593;28;20024;-66
2021/08/09 01:27:59;;;;;;;5.45;4.28;;;;;;;;;;5094750;28;20028;-66
2021/08/09 01:30:25;;;;;;;4.95;4.55;;;;;;;;;;5093849;28;20024;-69
2021/08/09 01:32:53;;;;;;;5.65;5.15;;;;;;;;;;5094074;28;20054;-70
2021/08/09 01:35:21;;;;;;;5.13;4.65;;;;;;;;;;5094203;28;20165;-68
2021/08/09 01:37:49;;;;;;;5.55;5.05;;;;;;;;;;5094140;28;20036;-67
2021/08/09 01:40:16;;;;;;;6.18;5.57;;;;;;;;;;5095373;28;20024;-67
2021/08/09 01:42:43;;;;;;;5.35;4.88;;;;;;;;;;5094690;28;20039;-67
2021/08/09 01:45:11;;;;;;;5.90;5.40;;;;;;;;;;5094149;28;20043;-67
2021/08/09 01:47:38;;;;;;;6.65;5.95;;;;;;;;;;5094188;28;20040;-67
2021/08/09 01:50:05;;;;;;;6.32;5.63;;;;;;;;;;5094225;28;20465;-67
2021/08/09 01:52:30;;;;;;;6.97;5.63;;;;;;;;;;5094640;28;20060;-67
2021/08/09 01:54:57;;;;;;;7.22;5.85;;;;;;;;;;5094140;28;20047;-67
2021/08/09 01:57:24;;;;;;;6.47;5.80;;;;;;;;;;5094073;28;20051;-67
2021/08/09 01:59:50;;;;;;;5.47;4.95;;;;;;;;;;5094013;28;20038;-67
2021/08/09 02:02:36;;;;;;;6.60;5.60;;;;;;;;;;5094023;28;20123;-67
2021/08/09 02:05:12;;;;;;;7.20;5.22;;;;;;;;;;5094946;28;20047;-60
2021/08/09 02:07:41;;;;;;;5.18;4.72;;;;;;;;;;5093480;28;20036;-60
2021/08/09 02:10:07;;;;;;;7.05;5.55;;;;;;;;;;5093803;28;20039;-60
2021/08/09 02:12:39;;;;;;;5.72;5.20;;;;;;;;;;5093481;28;20044;-60
2021/08/09 02:15:05;;;;;;;6.57;4.75;;;;;;;;;;5093737;28;20403;-60
2021/08/09 02:17:40;;;;;;;7.53;5.82;;;;;;;;;;5095073;28;20032;-60
2021/08/09 02:20:10;;;;;;;7.20;5.75;;;;;;;;;;5093565;28;20036;-60
2021/08/09 02:22:43;;;;;;;6.00;5.32;;;;;;;;;;5093485;28;20388;-60
2021/08/09 02:25:15;;;;;;;5.63;5.10;;;;;;;;;;5093472;28;20391;-59
2021/08/09 02:27:42;;;;;;;7.07;5.90;;;;;;;;;;5094617;28;20035;-59
2021/08/09 02:30:08;;;;;;;5.78;5.22;;;;;;;;;;5093308;28;20024;-60
2021/08/09 02:32:35;;;;;;;7.15;5.78;;;;;;;;;;5076459;28;20380;-60
2021/08/09 02:35:03;;;;;;;9.82;6.72;;;;;;;;;;5093449;28;20045;-59
2021/08/09 02:37:30;;;;;;;10.00;6.30;;;;;;;;;;5093347;28;20036;-66
2021/08/09 02:39:57;;;;;;;7.90;6.40;;;;;;;;;;5093161;28;20055;-67
2021/08/09 02:42:23;;;;;;;9.13;6.63;;;;;;;;;;5092966;28;20506;-67
2021/08/09 02:44:49;;;;;;;6.40;5.78;;;;;;;;;;5093195;28;20028;-68
2021/08/09 02:47:15;;;;;;;6.25;5.65;;;;;;;;;;5094228;28;20040;-68
2021/08/09 02:49:46;;;;;;;5.95;5.45;;;;;;;;;;5094268;28;20024;-67
2021/08/09 02:52:12;;;;;;;6.18;5.57;;;;;;;;;;5076493;28;20032;-66
2021/08/09 02:54:38;;;;;;;6.82;6.13;;;;;;;;;;5092860;28;20020;-68
2021/08/09 02:57:04;;;;;;;5.30;4.90;;;;;;;;;;5094271;28;20381;-59
2021/08/09 02:59:30;;;;;;;5.07;4.53;;;;;;;;;;5092794;28;20391;-59
2021/08/09 03:01:56;;;;;;;4.60;4.20;;;;;;;;;;5092591;28;20043;-59
2021/08/09 03:04:22;;;;;;;5.40;4.43;;;;;;;;;;5092527;28;20391;-60
2021/08/09 03:06:49;;;;;;;5.38;4.88;;;;;;;;;;5092505;28;20044;-59
2021/08/09 03:09:15;;;;;;;5.18;4.80;;;;;;;;;;5092622;28;20097;-59
2021/08/09 03:11:42;;;;;;;4.55;4.25;;;;;;;;;;5092237;28;20039;-60
2021/08/09 03:14:25;;;;;;;4.95;4.50;;;;;;;;;;5092858;28;20035;-60
2021/08/09 03:16:54;;;;;;;5.07;4.57;;;;;;;;;;5092652;28;20040;-60
2021/08/09 03:19:19;;;;;;;7.47;4.65;;;;;;;;;;5092864;28;20047;-60
2021/08/09 03:21:51;;;;;;;5.15;4.65;;;;;;;;;;5093928;28;20062;-59
2021/08/09 03:24:17;;;;;;;5.43;4.70;;;;;;;;;;5092654;28;20209;-60
2021/08/09 03:26:43;;;;;;;6.38;4.00;;;;;;;;;;5092627;28;20415;-60
2021/08/09 03:29:08;;;;;;;3.80;3.50;;;;;;;;;;5093709;28;20055;-60
2021/08/09 03:31:34;;;;;;;5.65;4.65;;;;;;;;;;5092440;28;20066;-59
2021/08/09 03:34:00;;;;;;;5.45;4.95;;;;;;;;;;5092227;28;20089;-60
2021/08/09 03:36:25;;;;;;;6.05;5.55;;;;;;;;;;5092085;28;20067;-60
2021/08/09 03:38:51;;;;;;;6.28;5.78;;;;;;;;;;5092172;28;20063;-59
2021/08/09 03:41:16;;;;;;;7.13;5.78;;;;;;;;;;5091833;28;20020;-60
2021/08/09 03:43:42;;;;;;;7.03;6.40;;;;;;;;;;5074123;28;20221;-67
2021/08/09 03:46:10;;;;;;;6.25;5.70;;;;;;;;;;5091692;28;20502;-67
2021/08/09 03:48:35;;;;;;;6.10;5.60;;;;;;;;;;5093391;28;20533;-63
2021/08/09 03:51:01;;;;;;;6.07;5.53;;;;;;;;;;5091963;28;20025;-64
2021/08/09 03:53:26;;;;;;;7.68;6.13;;;;;;;;;;5092288;28;20543;-64
2021/08/09 03:55:52;;;;;;;6.57;5.97;;;;;;;;;;5100021;28;20031;-64
2021/08/09 03:58:18;;;;;;;6.47;5.88;;;;;;;;;;5098779;28;20036;-63
2021/08/09 04:00:44;;;;;;;6.32;5.72;;;;;;;;;;5100382;28;20028;-63
2021/08/09 04:03:09;;;;;;;7.47;5.97;;;;;;;;;;5100450;28;20044;-63
2021/08/09 04:05:38;;;;;;;6.28;5.72;;;;;;;;;;5098704;28;20483;-63
2021/08/09 04:08:04;;;;;;;6.65;6.03;;;;;;;;;;5098795;28;20043;-63
2021/08/09 04:10:29;;;;;;;6.88;6.25;;;;;;;;;;5100066;28;20028;-63
2021/08/09 04:12:55;;;;;;;6.75;6.07;;;;;;;;;;5116486;28;20039;-63
2021/08/09 04:15:20;;;;;;;7.18;6.47;;;;;;;;;;5102126;28;20067;-63
2021/08/09 04:17:46;;;;;;;7.68;6.10;;;;;;;;;;5100074;28;20062;-63
2021/08/09 04:20:12;;;;;;;6.82;6.22;;;;;;;;;;5100719;28;20434;-63
2021/08/09 04:22:38;;;;;;;6.85;5.90;;;;;;;;;;5101959;28;20063;-63
2021/08/09 04:25:04;;;;;;;5.93;5.43;;;;;;;;;;5102260;28;20445;-63
2021/08/09 04:27:30;;;;;;;5.60;5.15;;;;;;;;;;5101965;28;20039;-63
2021/08/09 04:29:56;;;;;;;5.38;4.68;;;;;;;;;;5120108;28;20027;-63
2021/08/09 04:32:22;;;;;;;6.07;4.88;;;;;;;;;;5101633;28;20035;-64
2021/08/09 04:34:49;;;;;;;6.07;5.53;;;;;;;;;;5101728;28;20059;-64
2021/08/09 04:37:16;;;;;;;6.03;5.43;;;;;;;;;;5101983;28;20039;-60
2021/08/09 04:39:41;;;;;;;5.45;4.95;;;;;;;;;;5101928;28;20027;-59
2021/08/09 04:42:09;;;;;;;5.40;4.82;;;;;;;;;;5101833;28;20035;-59
2021/08/09 04:44:34;;;;;;;5.07;4.68;;;;;;;;;;5101968;28;20035;-59
2021/08/09 04:47:00;;;;;;;5.22;4.70;;;;;;;;;;5101649;28;20038;-60
2021/08/09 04:49:27;;;;;;;5.82;5.07;;;;;;;;;;5101817;28;20034;-59
2021/08/09 04:51:53;;;;;;;5.03;4.57;;;;;;;;;;5119855;28;20027;-59
2021/08/09 04:57:53;;;;;;;4.55;4.18;;;;;;;;;;5120540;28;20088;-59
2021/08/09 05:03:57;;;;;;;4.30;3.97;;;;;;;;;;5120493;28;20043;-60
2021/08/09 05:10:02;;;;;;;5.93;3.90;;;;;;;;;;5117193;28;20031;-59
2021/08/09 05:19:21;;;;;;;5.57;4.70;;;;;;;;;;5117045;28;20061;-60
2021/08/09 05:25:23;;;;;;;4.85;3.80;;;;;;;;;;5116905;28;20084;-59
2021/08/09 05:31:24;;;;;;;4.25;3.92;;;;;;;;;;5116824;28;20081;-60
2021/08/09 05:37:31;;;;;;;4.10;3.70;;;;;;;;;;5116709;28;20027;-59
2021/08/09 05:47:20;;;;;;;3.72;3.30;;;;;;;;;;5116310;28;20141;-59
2021/08/09 05:53:21;;;;;;;3.08;2.88;;;;;;;;;;5116146;28;20097;-59
2021/08/09 05:59:23;;;;;;;2.60;2.40;;;;;;;;;;5116043;28;20398;-59
2021/08/09 06:05:26;;;;;;;2.95;2.47;;;;;;;;;;5115924;28;20018;-59
2021/08/09 06:11:30;;;;;;;2.35;2.25;;;;;;;;;;5116031;28;20488;-59
2021/08/09 06:21:20;;;;;;;3.70;2.65;;;;;;;;;;5115830;28;20472;-59
2021/08/09 06:27:22;;;;;;;3.33;2.72;;;;;;;;;;5115468;28;20209;-59
2021/08/09 06:33:23;;;;;;;3.90;2.88;;;;;;;;;;5115361;28;20031;-59
2021/08/09 06:39:24;;;;;;;5.03;3.10;;;;;;;;;;5115644;28;20027;-59
2021/08/09 06:45:25;;;;;;;5.88;3.05;;;;;;;;;;5115365;28;20053;-59
2021/08/09 06:51:27;;;;;;;3.80;2.97;;;;;;;;;;5115252;28;20096;-60
2021/08/09 06:57:29;;;;;;;6.07;3.05;;;;;;;;;;5115148;28;20026;-60
2021/08/09 07:03:32;;;;;;;6.70;2.85;;;;;;;;;;5115038;28;20093;-60
2021/08/09 07:09:33;;;;;;;5.25;2.92;;;;;;;;;;5114922;28;20026;-59
2021/08/09 07:15:34;;;;;;;4.35;3.13;;;;;;;;;;5114828;28;20042;-59
2021/08/09 07:24:47;;;;;;;2.85;2.00;;;;;;;;;;5114588;28;20038;-59
2021/08/09 07:30:48;;;;;;;1.75;1.63;;;;;;;;;;5114187;28;20477;-59
2021/08/09 07:36:49;;;;;;;2.10;1.38;;;;;;;;;;5114246;28;20544;-59
2021/08/09 14:06:07;;;;;;;2.08;1.80;;;;;;;;;;5090092;28;20051;-58
2021/08/09 14:08:33;;;;;;;3.33;1.90;;;;;;;;;;5094943;28;20040;-58
2021/08/09 14:11:00;;;;;;;2.47;2.08;;;;;;;;;;5094880;28;20594;-57
2021/08/09 14:13:25;;;;;;;3.75;1.98;;;;;;;;;;5094825;28;20488;-58
2021/08/09 14:15:55;;;;;;;2.17;1.92;;;;;;;;;;5060047;28;20028;-57
2021/08/09 14:18:24;;;;;;;1.80;1.70;;;;;;;;;;5060764;28;20028;-57
2021/08/09 14:20:50;;;;;;;3.55;1.70;;;;;;;;;;5094267;28;20086;-58
2021/08/09 14:23:16;;;;;;;2.58;2.00;;;;;;;;;;5075914;28;20069;-58
2021/08/09 14:25:42;;;;;;;2.65;1.58;;;;;;;;;;5075104;28;20016;-58
2021/08/09 14:28:08;;;;;;;4.18;1.95;;;;;;;;;;5075818;28;20403;-58
2021/08/09 14:30:34;;;;;;;4.10;1.90;;;;;;;;;;5075755;28;20032;-58
2021/08/09 14:33:00;;;;;;;3.92;2.45;;;;;;;;;;5074607;28;20115;-58
2021/08/09 14:35:28;;;;;;;3.58;2.20;;;;;;;;;;5072828;28;20086;-58
2021/08/09 14:37:54;;;;;;;4.43;2.17;;;;;;;;;;5075368;28;20028;-58
2021/08/09 14:40:20;;;;;;;3.95;2.35;;;;;;;;;;5074645;28;20060;-57
2021/08/09 14:42:46;;;;;;;3.63;2.05;;;;;;;;;;5075626;28;20083;-58
2021/08/09 14:45:12;;;;;;;5.22;2.13;;;;;;;;;;5075500;28;20528;-58
2021/08/09 14:47:39;;;;;;;5.57;2.47;;;;;;;;;;5093713;28;20507;-57
2021/08/09 14:50:06;;;;;;;2.42;2.22;;;;;;;;;;5075492;28;20506;-58
2021/08/09 14:52:33;;;;;;;3.35;2.28;;;;;;;;;;5075336;28;20059;-58
2021/08/09 14:54:58;;;;;;;2.70;2.00;;;;;;;;;;5073908;28;20063;-58
2021/08/09 14:57:24;;;;;;;4.57;2.03;;;;;;;;;;5075413;28;20044;-58
2021/08/09 14:59:54;;;;;;;5.20;2.08;;;;;;;;;;5075178;28;20067;-58
2021/08/09 15:02:24;;;;;;;3.45;1.88;;;;;;;;;;5076059;28;20039;-58
2021/08/09 15:04:51;;;;;;;3.42;2.20;;;;;;;;;;5072676;28;20032;-60
2021/08/09 15:07:22;;;;;;;4.25;2.08;;;;;;;;;;5050223;28;20049;-60
2021/08/09 15:09:55;;;;;;;2.55;2.15;;;;;;;;;;5032901;28;20042;-60
2021/08/09 15:12:22;;;;;;;3.70;2.10;;;;;;;;;;5033904;28;20064;-61
2021/08/09 15:14:47;;;;;;;4.50;2.30;;;;;;;;;;5033611;28;20108;-60
2021/08/09 15:17:13;;;;;;;3.90;2.25;;;;;;;;;;5032389;28;20128;-60
2021/08/09 15:19:39;;;;;;;8.23;2.40;;;;;;;;;;5031990;28;20033;-60
2021/08/09 15:22:05;;;;;;;5.63;2.55;;;;;;;;;;5033562;28;20043;-60
2021/08/09 15:24:30;;;;;;;5.50;2.47;;;;;;;;;;5033527;28;20444;-60
2021/08/09 15:30:31;;;;;;;3.28;2.33;;;;;;;;;;5034088;28;20088;-60
2021/08/09 15:36:30;;;;;;;2.53;2.28;;;;;;;;;;5033762;28;20547;-60
2021/08/09 15:42:30;;;;;;;4.43;2.88;;;;;;;;;;5033682;28;20078;-60
2021/08/09 15:48:31;;;;;;;3.70;2.15;;;;;;;;;;5033856;28;20040;-60
2021/08/09 15:54:31;;;;;;;2.53;2.10;;;;;;;;;;5033584;28;20048;-60
2021/08/09 16:00:31;;;;;;;2.30;2.10;;;;;;;;;;5033666;28;20092;-60
2021/08/09 16:10:26;;;;;;;4.25;3.10;;;;;;;;;;5073652;28;20099;-60
2021/08/09 16:16:26;;;;;;;3.13;2.28;;;;;;;;;;5073353;28;20067;-60
2021/08/09 16:22:28;;;;;;;3.13;1.95;;;;;;;;;;5073682;28;20090;-60
2021/08/09 16:28:29;;;;;;;3.47;1.80;;;;;;;;;;5073443;28;20081;-60
2021/08/09 16:34:29;;;;;;;1.92;1.63;;;;;;;;;;5073143;28;20083;-60
2021/08/09 16:40:31;;;;;;;1.88;1.63;;;;;;;;;;5073333;28;20457;-60
2021/08/09 16:46:30;;;;;;;3.00;2.63;;;;;;;;;;5073175;28;20044;-60
2021/08/09 16:52:31;;;;;;;2.10;1.90;;;;;;;;;;5072968;28;20055;-60
2021/08/09 16:58:32;;;;;;;2.38;1.63;;;;;;;;;;5073203;28;20063;-60
2021/08/09 17:04:33;;;;;;;2.20;2.00;;;;;;;;;;5076873;28;20079;-60
2021/08/09 19:02:15;;;;;;;6.57;4.68;;;;;;;;;;5089116;28;20087;-58
2021/08/09 19:04:40;;;;;;;12.23;5.75;;;;;;;;;;5094184;28;20040;-58
2021/08/09 19:07:06;;;;;;;8.85;5.28;;;;;;;;;;5093952;28;20028;-58
2021/08/09 19:09:33;;;;;;;6.28;3.90;;;;;;;;;;5093951;28;20032;-58
2021/08/09 19:11:59;;;;;;;3.92;3.35;;;;;;;;;;5093870;28;20111;-58
2021/08/09 19:14:24;;;;;;;3.75;3.35;;;;;;;;;;5093617;28;20119;-58
2021/08/09 19:16:50;;;;;;;4.28;3.50;;;;;;;;;;5093529;28;20110;-58
2021/08/09 19:19:15;;;;;;;6.57;4.00;;;;;;;;;;5093760;28;20076;-58
2021/08/09 19:21:41;;;;;;;9.02;4.95;;;;;;;;;;5094028;28;20369;-58
2021/08/09 19:24:06;;;;;;;9.77;5.53;;;;;;;;;;5093704;28;20042;-59
2021/08/09 19:26:32;;;;;;;18.08;7.18;;;;;;;;;;5093390;28;20096;-59
2021/08/09 19:28:58;;;;;;;13.00;6.22;;;;;;;;;;5093779;28;20439;-59
2021/08/09 19:31:25;;;;;;;10.68;5.93;;;;;;;;;;5093913;28;20081;-59
2021/08/09 19:33:52;;;;;;;10.82;5.63;;;;;;;;;;5093368;28;20028;-59
2021/08/09 19:36:18;;;;;;;12.35;5.65;;;;;;;;;;5073984;28;20099;-59
2021/08/09 19:38:43;;;;;;;13.70;6.93;;;;;;;;;;5092703;28;20024;-59
2021/08/09 19:41:10;;;;;;;13.35;6.20;;;;;;;;;;5092707;28;20020;-59
2021/08/09 19:43:35;;;;;;;9.68;4.95;;;;;;;;;;5092920;28;20464;-59
2021/08/09 19:46:02;;;;;;;9.82;5.18;;;;;;;;;;5092879;28;20073;-59
2021/08/09 19:48:36;;;;;;;18.45;8.27;;;;;;;;;;5092673;28;20064;-59
2021/08/09 19:51:02;;;;;;;16.30;8.35;;;;;;;;;;5074337;28;20024;-59
2021/08/09 19:53:27;;;;;;;9.50;5.50;;;;;;;;;;5092719;28;20024;-59
2021/08/09 19:55:53;;;;;;;9.95;5.80;;;;;;;;;;5092407;28;20028;-59
2021/08/09 19:58:20;;;;;;;13.25;7.50;;;;;;;;;;5092646;28;20097;-59
2021/08/09 20:00:46;;;;;;;13.50;7.47;;;;;;;;;;5092658;28;20029;-59
2021/08/09 20:03:11;;;;;;;11.98;6.07;;;;;;;;;;5092524;28;20036;-59
2021/08/09 20:05:37;;;;;;;12.13;6.80;;;;;;;;;;5092418;28;20126;-59
2021/08/09 20:08:06;;;;;;;12.45;5.93;;;;;;;;;;5092479;28;20107;-59
2021/08/09 20:10:31;;;;;;;6.75;4.95;;;;;;;;;;5092458;28;20032;-59
2021/08/09 20:12:59;;;;;;;9.73;5.10;;;;;;;;;;5092448;28;20012;-60
2021/08/09 20:15:25;;;;;;;5.85;4.22;;;;;;;;;;5092123;28;20399;-59
2021/08/09 20:17:50;;;;;;;5.70;3.95;;;;;;;;;;5073277;28;20455;-59
2021/08/09 20:20:16;;;;;;;4.20;3.58;;;;;;;;;;5092482;28;20063;-59
2021/08/09 20:22:41;;;;;;;5.43;3.78;;;;;;;;;;5092304;28;20063;-59
2021/08/09 20:25:10;;;;;;;6.85;4.13;;;;;;;;;;5092406;28;20028;-59
2021/08/09 20:27:37;;;;;;;7.35;3.70;;;;;;;;;;5092054;28;20392;-59
2021/08/09 20:30:03;;;;;;;4.97;3.60;;;;;;;;;;5092417;28;20032;-59
2021/08/09 20:32:28;;;;;;;5.03;3.80;;;;;;;;;;5092365;28;20077;-59
2021/08/09 20:34:54;;;;;;;5.57;4.07;;;;;;;;;;5092407;28;20032;-59
2021/08/09 20:37:19;;;;;;;5.38;3.90;;;;;;;;;;5094844;28;20133;-59
2021/08/09 20:39:45;;;;;;;5.22;4.07;;;;;;;;;;5096445;28;20063;-59
2021/08/09 20:42:10;;;;;;;6.88;4.25;;;;;;;;;;5096233;28;20047;-59
2021/08/09 20:44:36;;;;;;;4.95;3.80;;;;;;;;;;5096270;28;20094;-59
2021/08/09 20:47:01;;;;;;;6.70;3.85;;;;;;;;;;5096653;28;20558;-59
2021/08/09 20:49:27;;;;;;;5.78;3.80;;;;;;;;;;5095805;28;20032;-59
2021/08/09 20:51:52;;;;;;;3.67;3.25;;;;;;;;;;5095086;28;20471;-59
2021/08/09 20:54:18;;;;;;;6.90;3.47;;;;;;;;;;5094741;28;20456;-59
2021/08/09 20:56:43;;;;;;;5.28;3.42;;;;;;;;;;5095296;28;20032;-59
2021/08/09 20:59:09;;;;;;;6.22;3.17;;;;;;;;;;5076811;28;20047;-61
2021/08/09 21:01:34;;;;;;;7.15;3.83;;;;;;;;;;5094512;28;20040;-60
2021/08/09 21:04:00;;;;;;;4.78;3.22;;;;;;;;;;5094949;28;20086;-59
2021/08/09 21:06:25;;;;;;;3.22;2.95;;;;;;;;;;5096489;28;20020;-59
2021/08/09 21:08:51;;;;;;;2.95;2.55;;;;;;;;;;5096448;28;20040;-59
2021/08/09 21:11:16;;;;;;;4.13;2.67;;;;;;;;;;5096519;28;20047;-59
2021/08/09 21:13:42;;;;;;;3.92;3.05;;;;;;;;;;5096279;28;20028;-58
2021/08/09 21:16:07;;;;;;;5.03;3.35;;;;;;;;;;5096216;28;20160;-58
2021/08/09 21:18:35;;;;;;;3.75;3.15;;;;;;;;;;5077754;28;20039;-58
2021/08/09 21:21:01;;;;;;;3.40;2.97;;;;;;;;;;5096115;28;20032;-58
2021/08/09 21:23:28;;;;;;;3.63;2.88;;;;;;;;;;5078076;28;20047;-58
2021/08/09 21:25:53;;;;;;;4.65;2.80;;;;;;;;;;5096013;28;20028;-59
2021/08/09 21:28:18;;;;;;;5.25;2.90;;;;;;;;;;5095823;28;20035;-59
2021/08/09 21:30:44;;;;;;;5.53;2.85;;;;;;;;;;5095962;28;20099;-58
2021/08/09 21:33:09;;;;;;;3.20;2.90;;;;;;;;;;5095731;28;20386;-59
2021/08/09 21:35:35;;;;;;;3.30;2.80;;;;;;;;;;5095853;28;20464;-59
2021/08/09 21:38:00;;;;;;;3.92;2.90;;;;;;;;;;5095681;28;20387;-58
2021/08/09 21:40:26;;;;;;;4.47;2.65;;;;;;;;;;5077889;28;20368;-59
2021/08/09 21:42:52;;;;;;;7.60;2.80;;;;;;;;;;5095946;28;20115;-59
2021/08/09 21:45:17;;;;;;;4.50;2.92;;;;;;;;;;5077611;28;20426;-59
2021/08/09 21:47:43;;;;;;;4.15;3.30;;;;;;;;;;5094567;28;20617;-59
2021/08/09 21:50:09;;;;;;;5.88;2.72;;;;;;;;;;5095075;28;20145;-59
2021/08/09 21:52:34;;;;;;;2.85;2.40;;;;;;;;;;5095585;28;20039;-59
2021/08/09 21:55:00;;;;;;;3.60;3.15;;;;;;;;;;5095329;28;20387;-59
2021/08/09 21:57:25;;;;;;;3.85;2.90;;;;;;;;;;5095314;28;20032;-59
2021/08/09 21:59:51;;;;;;;6.38;3.40;;;;;;;;;;5077219;28;20094;-59
2021/08/09 22:02:16;;;;;;;9.95;4.30;;;;;;;;;;5073321;28;20046;-59
2021/08/09 22:04:42;;;;;;;10.98;5.20;;;;;;;;;;5075030;28;20121;-59
2021/08/09 22:07:07;;;;;;;14.45;5.30;;;;;;;;;;5075164;28;20049;-59
2021/08/09 22:09:33;;;;;;;8.98;4.22;;;;;;;;;;5074987;28;20401;-59
2021/08/09 22:11:59;;;;;;;8.18;3.92;;;;;;;;;;5075028;28;20469;-59
2021/08/09 22:14:25;;;;;;;6.40;2.97;;;;;;;;;;5074824;28;20025;-59
2021/08/09 22:16:50;;;;;;;3.60;3.05;;;;;;;;;;5074744;28;20082;-59
2021/08/09 22:19:16;;;;;;;5.22;2.97;;;;;;;;;;5074863;28;20040;-59
2021/08/09 22:21:42;;;;;;;6.05;2.75;;;;;;;;;;5074687;28;20032;-59
2021/08/09 22:24:08;;;;;;;8.30;2.95;;;;;;;;;;5074781;28;20036;-59
2021/08/09 22:26:33;;;;;;;5.30;3.40;;;;;;;;;;5074458;28;20055;-59
2021/08/09 22:28:59;;;;;;;6.05;3.17;;;;;;;;;;5074532;28;20029;-59
2021/08/09 22:31:24;;;;;;;4.70;2.80;;;;;;;;;;5074556;28;20114;-59
2021/08/09 22:33:50;;;;;;;5.03;2.75;;;;;;;;;;5074620;28;20033;-59
2021/08/09 22:36:17;;;;;;;5.00;3.17;;;;;;;;;;5074421;28;20036;-59
2021/08/09 22:38:42;;;;;;;6.22;3.25;;;;;;;;;;5073243;28;20346;-59
2021/08/09 22:41:08;;;;;;;5.78;3.13;;;;;;;;;;5074422;28;20033;-59
2021/08/09 22:43:33;;;;;;;4.72;3.33;;;;;;;;;;5074515;28;20025;-59
2021/08/09 22:45:59;;;;;;;5.15;3.63;;;;;;;;;;5074171;28;20361;-59
2021/08/09 22:48:24;;;;;;;6.93;3.45;;;;;;;;;;5072847;28;20090;-59
2021/08/09 22:50:50;;;;;;;6.50;3.50;;;;;;;;;;5073988;28;20031;-58
2021/08/09 22:53:15;;;;;;;5.95;3.50;;;;;;;;;;5074006;28;20147;-59
2021/08/09 22:55:41;;;;;;;5.40;4.07;;;;;;;;;;5074074;28;20036;-59
2021/08/09 22:58:06;;;;;;;9.38;4.03;;;;;;;;;;5074131;28;20040;-59
2021/08/09 23:00:32;;;;;;;10.68;4.20;;;;;;;;;;5074027;28;20483;-59
2021/08/09 23:02:58;;;;;;;9.40;4.70;;;;;;;;;;5090471;28;20036;-59
2021/08/09 23:05:24;;;;;;;10.10;4.38;;;;;;;;;;5094065;28;20126;-59
2021/08/09 23:07:51;;;;;;;8.27;3.47;;;;;;;;;;5094010;28;20040;-59
2021/08/09 23:10:17;;;;;;;5.03;3.25;;;;;;;;;;5094332;28;20028;-59
2021/08/09 23:12:43;;;;;;;6.35;3.25;;;;;;;;;;5094153;28;20085;-59
2021/08/09 23:15:08;;;;;;;4.75;3.05;;;;;;;;;;5094004;28;20020;-59
2021/08/09 23:17:34;;;;;;;4.45;3.30;;;;;;;;;;5075710;28;20110;-60
2021/08/09 23:20:00;;;;;;;3.65;3.05;;;;;;;;;;5075857;28;20038;-59
2021/08/09 23:22:25;;;;;;;8.55;3.60;;;;;;;;;;5093834;28;20040;-59
2021/08/09 23:24:50;;;;;;;5.35;3.63;;;;;;;;;;5093862;28;20055;-59
2021/08/09 23:27:16;;;;;;;6.75;3.20;;;;;;;;;;5075841;28;20032;-59
2021/08/09 23:29:42;;;;;;;4.72;3.90;;;;;;;;;;5093677;28;20013;-59
2021/08/09 23:32:07;;;;;;;7.45;3.85;;;;;;;;;;5093582;28;20040;-59
2021/08/09 23:34:33;;;;;;;4.63;3.42;;;;;;;;;;5093809;28;20032;-59
2021/08/09 23:36:58;;;;;;;5.28;2.92;;;;;;;;;;5094462;28;20463;-59
2021/08/09 23:39:24;;;;;;;2.60;2.40;;;;;;;;;;5093741;28;20036;-59
2021/08/09 23:41:50;;;;;;;3.63;2.20;;;;;;;;;;5093431;28;20032;-59
2021/08/09 23:44:15;;;;;;;3.00;2.28;;;;;;;;;;5093648;28;20028;-59
2021/08/09 23:46:41;;;;;;;2.35;2.13;;;;;;;;;;5093240;28;20043;-59
2021/08/09 23:49:06;;;;;;;4.30;2.30;;;;;;;;;;5075494;28;20023;-63
2021/08/09 23:51:32;;;;;;;3.03;2.22;;;;;;;;;;5093538;28;20109;-59
2021/08/09 23:53:57;;;;;;;3.20;2.40;;;;;;;;;;5093414;28;20532;-59
2021/08/09 23:56:22;;;;;;;3.72;2.55;;;;;;;;;;5093395;28;20042;-59
2021/08/09 23:58:48;;;;;;;2.78;2.58;;;;;;;;;;5093453;28;20059;-59
